createdAt,value
2022-08-10T00:01:51.313Z,23.80
2022-08-10T00:04:21.266Z,23.80
2022-08-10T00:06:50.611Z,23.70
2022-08-10T00:09:18.143Z,23.70
2022-08-10T00:11:45.220Z,23.70
2022-08-10T00:14:12.399Z,23.70
2022-08-10T00:16:39.690Z,23.70
2022-08-10T00:19:06.909Z,23.70
2022-08-10T00:21:34.006Z,23.70
2022-08-10T00:24:01.134Z,23.70
2022-08-10T00:27:52.200Z,23.60
2022-08-10T00:29:15.800Z,23.60
2022-08-10T00:31:58.278Z,23.60
2022-08-10T00:34:31.330Z,23.60
2022-08-10T00:36:59.539Z,23.60
2022-08-10T00:39:27.756Z,23.60
2022-08-10T00:42:01.725Z,23.60
2022-08-10T00:44:53.716Z,23.60
2022-08-10T00:47:36.412Z,23.50
2022-08-10T00:50:06.406Z,23.50
2022-08-10T00:52:34.022Z,23.50
2022-08-10T00:55:05.964Z,23.50
2022-08-10T00:57:34.239Z,23.50
2022-08-10T01:00:01.905Z,23.50
2022-08-10T01:02:30.836Z,23.50
2022-08-10T01:05:05.134Z,23.50
2022-08-10T01:07:50.762Z,23.50
2022-08-10T01:10:43.306Z,23.40
2022-08-10T01:13:17.903Z,23.40
2022-08-10T01:15:53.599Z,23.40
2022-08-10T01:18:51.065Z,23.40
2022-08-10T01:21:37.134Z,23.40
2022-08-10T01:24:25.068Z,23.40
2022-08-10T01:26:52.492Z,23.40
2022-08-10T01:30:14.647Z,23.30
2022-08-10T01:33:18.147Z,23.40
2022-08-10T01:36:08.917Z,23.30
2022-08-10T01:38:41.116Z,23.30
2022-08-10T01:41:19.421Z,23.30
2022-08-10T01:44:12.284Z,23.30
2022-08-10T01:46:45.564Z,23.30
2022-08-10T01:49:15.988Z,23.30
2022-08-10T01:51:49.672Z,23.20
2022-08-10T01:54:21.095Z,23.20
2022-08-10T01:56:52.774Z,23.10
2022-08-10T01:59:30.234Z,23.20
2022-08-10T02:02:02.524Z,23.20
2022-08-10T02:04:31.399Z,23.20
2022-08-10T02:06:59.045Z,23.20
2022-08-10T02:09:29.164Z,23.10
2022-08-10T02:12:07.299Z,23.20
2022-08-10T02:14:46.915Z,23.10
2022-08-10T02:17:58.034Z,23.10
2022-08-10T02:20:11.265Z,23.10
2022-08-10T02:22:40.117Z,23.10
2022-08-10T02:25:39.851Z,23.10
2022-08-10T02:28:06.486Z,23.00
2022-08-10T02:30:34.399Z,23.00
2022-08-10T02:33:02.143Z,23.00
2022-08-10T02:35:33.470Z,23.00
2022-08-10T02:38:23.163Z,23.00
2022-08-10T02:45:01.574Z,23.00
2022-08-10T02:45:19.193Z,23.00
2022-08-10T02:47:25.610Z,23.00
2022-08-10T02:50:03.793Z,22.90
2022-08-10T02:52:45.462Z,22.90
2022-08-10T02:55:33.698Z,22.90
2022-08-10T02:58:17.265Z,22.90
2022-08-10T03:00:50.323Z,22.90
2022-08-10T03:03:25.146Z,22.90
2022-08-10T03:05:59.689Z,22.90
2022-08-10T03:08:33.974Z,22.80
2022-08-10T03:11:03.961Z,22.80
2022-08-10T03:13:33.093Z,22.80
2022-08-10T03:16:02.729Z,22.80
2022-08-10T03:18:32.073Z,22.70
2022-08-10T03:21:01.001Z,22.80
2022-08-10T03:23:29.070Z,22.80
2022-08-10T03:25:58.805Z,22.70
2022-08-10T03:28:32.134Z,22.80
2022-08-10T03:31:02.009Z,22.70
2022-08-10T03:33:32.417Z,22.70
2022-08-10T03:36:40.287Z,22.70
2022-08-10T03:38:51.751Z,22.70
2022-08-10T03:41:25.435Z,22.70
2022-08-10T03:43:58.438Z,22.70
2022-08-10T03:46:28.331Z,22.60
2022-08-10T03:48:58.215Z,22.60
2022-08-10T03:51:28.981Z,22.60
2022-08-10T03:54:04.749Z,22.60
2022-08-10T03:56:38.624Z,22.60
2022-08-10T03:59:11.331Z,22.60
2022-08-10T04:02:43.754Z,22.60
2022-08-10T04:04:26.238Z,22.60
2022-08-10T04:06:58.976Z,22.50
2022-08-10T04:09:29.800Z,22.50
2022-08-10T04:12:16.773Z,22.50
2022-08-10T04:14:51.407Z,22.50
2022-08-10T04:18:00.162Z,22.50
2022-08-10T04:20:18.010Z,22.50
2022-08-10T04:22:48.916Z,22.40
2022-08-10T04:25:16.924Z,22.40
2022-08-10T04:27:44.854Z,22.40
2022-08-10T04:30:12.270Z,22.40
2022-08-10T04:32:41.410Z,22.40
2022-08-10T04:35:10.858Z,22.40
2022-08-10T04:37:43.398Z,22.40
2022-08-10T04:40:28.708Z,22.40
2022-08-10T04:43:07.509Z,22.30
2022-08-10T04:45:49.857Z,22.30
2022-08-10T04:48:42.687Z,22.30
2022-08-10T04:51:17.870Z,22.30
2022-08-10T04:54:05.809Z,22.30
2022-08-10T04:56:36.186Z,22.30
2022-08-10T04:59:05.293Z,22.20
2022-08-10T05:02:21.908Z,22.30
2022-08-10T05:04:35.448Z,22.20
2022-08-10T05:07:10.891Z,22.20
2022-08-10T05:10:01.305Z,22.20
2022-08-10T05:12:29.536Z,22.20
2022-08-10T05:14:56.783Z,22.20
2022-08-10T05:17:25.119Z,22.20
2022-08-10T05:20:02.975Z,22.20
2022-08-10T05:22:33.561Z,22.20
2022-08-10T05:25:00.731Z,22.20
2022-08-10T05:27:27.774Z,22.20
2022-08-10T05:30:01.812Z,22.10
2022-08-10T05:32:31.350Z,22.10
2022-08-10T05:34:58.466Z,22.20
2022-08-10T05:38:09.174Z,22.20
2022-08-10T05:40:14.004Z,22.10
2022-08-10T05:42:42.127Z,22.10
2022-08-10T05:45:25.124Z,22.20
2022-08-10T05:48:41.994Z,22.20
2022-08-10T05:50:39.594Z,22.20
2022-08-10T05:53:59.298Z,22.10
2022-08-10T05:55:54.784Z,22.20
2022-08-10T05:58:23.014Z,22.10
2022-08-10T06:00:55.763Z,22.10
2022-08-10T06:03:50.958Z,22.10
2022-08-10T06:06:24.828Z,22.20
2022-08-10T06:08:54.465Z,22.20
2022-08-10T06:12:28.210Z,22.10
2022-08-10T06:14:30.123Z,22.10
2022-08-10T06:16:58.593Z,22.20
2022-08-10T06:19:26.320Z,22.10
2022-08-10T06:22:01.358Z,22.20
2022-08-10T06:24:33.255Z,22.20
2022-08-10T06:27:00.743Z,22.10
2022-08-10T06:29:32.082Z,22.20
2022-08-10T06:32:01.336Z,22.20
2022-08-10T06:34:35.785Z,22.20
2022-08-10T06:37:05.912Z,22.20
2022-08-10T06:39:35.184Z,22.20
2022-08-10T06:42:31.480Z,22.20
2022-08-10T06:45:06.214Z,22.20
2022-08-10T06:47:48.904Z,22.20
2022-08-10T06:50:34.843Z,22.20
2022-08-10T06:53:18.162Z,22.30
2022-08-10T06:56:03.885Z,22.30
2022-08-10T06:58:45.194Z,22.30
2022-08-10T07:01:16.086Z,22.40
2022-08-10T07:04:08.389Z,22.40
2022-08-10T07:06:37.042Z,22.50
2022-08-10T07:09:05.459Z,22.50
2022-08-10T07:11:33.401Z,22.60
2022-08-10T07:14:13.973Z,22.70
2022-08-10T07:16:47.237Z,22.70
2022-08-10T07:19:15.725Z,22.70
2022-08-10T07:21:46.356Z,22.90
2022-08-10T07:24:14.886Z,22.90
2022-08-10T07:26:48.607Z,23.00
2022-08-10T07:29:38.688Z,23.00
2022-08-10T07:32:07.046Z,23.00
2022-08-10T07:34:37.520Z,23.10
2022-08-10T07:37:07.626Z,23.10
2022-08-10T07:40:01.938Z,23.20
2022-08-10T07:42:27.468Z,23.20
2022-08-10T07:44:58.593Z,23.30
2022-08-10T07:48:07.725Z,23.30
2022-08-10T07:50:38.929Z,23.40
2022-08-10T07:53:10.333Z,23.40
2022-08-10T07:56:03.963Z,23.50
2022-08-10T07:58:35.558Z,23.50
2022-08-10T08:01:02.703Z,23.60
2022-08-10T08:03:33.027Z,23.60
2022-08-10T08:06:05.677Z,23.70
2022-08-10T08:08:40.847Z,23.70
2022-08-10T08:11:08.813Z,23.80
2022-08-10T08:13:37.949Z,23.80
2022-08-10T08:16:17.221Z,23.80
2022-08-10T08:19:23.551Z,23.90
2022-08-10T08:24:05.431Z,24.00
2022-08-10T08:24:33.014Z,24.10
2022-08-10T08:27:05.808Z,24.10
2022-08-10T08:29:36.528Z,24.20
2022-08-10T08:32:04.847Z,24.30
2022-08-10T08:34:34.524Z,24.30
2022-08-10T08:37:04.198Z,24.30
2022-08-10T08:39:36.117Z,24.30
2022-08-10T08:42:25.159Z,24.40
2022-08-10T08:45:07.831Z,24.40
2022-08-10T08:48:05.631Z,24.40
2022-08-10T08:50:57.499Z,24.50
2022-08-10T08:53:25.157Z,24.50
2022-08-10T08:56:15.433Z,24.60
2022-08-10T08:58:59.613Z,24.60
2022-08-10T09:01:38.270Z,24.60
2022-08-10T09:04:29.685Z,24.70
2022-08-10T09:07:59.689Z,24.80
2022-08-10T09:10:37.775Z,24.80
2022-08-10T09:13:27.485Z,24.90
2022-08-10T09:16:17.120Z,25.00
2022-08-10T09:19:19.567Z,25.00
2022-08-10T09:22:17.905Z,25.10
2022-08-10T09:25:12.834Z,25.20
2022-08-10T09:27:49.412Z,25.30
2022-08-10T09:30:31.619Z,25.40
2022-08-10T09:36:25.389Z,25.40
2022-08-10T09:36:50.355Z,25.50
2022-08-10T09:40:56.913Z,25.60
2022-08-10T09:43:14.233Z,25.70
2022-08-10T09:46:02.941Z,25.70
2022-08-10T09:48:43.648Z,25.80
2022-08-10T09:51:46.864Z,25.80
2022-08-10T09:54:38.755Z,25.90
2022-08-10T09:57:54.855Z,25.90
2022-08-10T10:00:27.371Z,26.00
2022-08-10T10:03:24.058Z,26.10
2022-08-10T10:05:53.447Z,26.10
2022-08-10T10:08:42.199Z,26.20
2022-08-10T10:11:27.149Z,26.20
2022-08-10T10:14:04.081Z,26.30
2022-08-10T10:17:10.283Z,26.30
2022-08-10T10:20:03.222Z,26.40
2022-08-10T10:22:50.087Z,26.40
2022-08-10T10:25:23.051Z,26.50
2022-08-10T10:28:08.105Z,26.50
2022-08-10T10:31:16.767Z,26.60
2022-08-10T10:33:53.388Z,26.60
2022-08-10T10:36:22.181Z,26.70
2022-08-10T10:38:50.481Z,26.70
2022-08-10T10:41:26.509Z,26.70
2022-08-10T10:44:14.620Z,26.80
2022-08-10T10:46:47.696Z,26.90
2022-08-10T10:49:59.617Z,26.90
2022-08-10T10:53:03.815Z,27.00
2022-08-10T10:56:14.492Z,27.00
2022-08-10T10:58:47.334Z,27.10
2022-08-10T11:01:34.966Z,27.20
2022-08-10T11:04:29.840Z,27.20
2022-08-10T11:07:23.721Z,27.30
2022-08-10T11:10:32.748Z,27.30
2022-08-10T11:14:23.515Z,27.40
2022-08-10T11:15:59.467Z,27.50
2022-08-10T11:18:33.979Z,27.50
2022-08-10T11:21:19.220Z,27.60
2022-08-10T11:24:48.978Z,27.70
2022-08-10T11:27:17.401Z,27.70
2022-08-10T11:30:00.734Z,27.80
2022-08-10T11:32:33.412Z,27.90
2022-08-10T11:35:18.611Z,27.90
2022-08-10T11:38:32.072Z,28.00
2022-08-10T11:42:09.982Z,28.10
2022-08-10T11:44:18.768Z,28.20
2022-08-10T11:46:57.449Z,28.20
2022-08-10T11:49:31.205Z,28.40
2022-08-10T11:52:08.971Z,28.40
2022-08-10T11:54:50.749Z,28.50
2022-08-10T11:57:18.730Z,28.60
2022-08-10T11:59:57.985Z,28.70
2022-08-10T12:02:38.067Z,28.90
2022-08-10T12:05:10.758Z,29.30
2022-08-10T12:10:02.175Z,29.60
2022-08-10T12:10:40.202Z,30.00
2022-08-10T12:13:53.836Z,30.20
2022-08-10T12:16:31.656Z,30.40
2022-08-10T12:19:15.769Z,30.60
2022-08-10T12:21:57.434Z,30.70
2022-08-10T12:24:59.060Z,30.90
2022-08-10T12:27:44.945Z,31.00
2022-08-10T12:30:15.900Z,31.20
2022-08-10T12:32:59.774Z,31.50
2022-08-10T12:36:08.268Z,31.80
2022-08-10T12:39:00.524Z,32.30
2022-08-10T12:41:52.250Z,32.70
2022-08-10T12:44:42.295Z,32.70
2022-08-10T12:47:22.631Z,32.70
2022-08-10T12:50:30.184Z,32.70
2022-08-10T12:53:06.371Z,32.70
2022-08-10T12:55:34.747Z,32.90
2022-08-10T12:58:05.522Z,33.00
2022-08-10T13:01:15.259Z,33.00
2022-08-10T13:04:20.850Z,33.20
2022-08-10T13:06:34.290Z,33.40
2022-08-10T13:09:10.603Z,33.70
2022-08-10T13:12:38.061Z,33.90
2022-08-10T13:15:44.571Z,34.00
2022-08-10T13:18:01.635Z,34.20
2022-08-10T13:20:38.073Z,34.40
2022-08-10T13:23:20.796Z,34.60
2022-08-10T13:25:50.450Z,34.70
2022-08-10T13:28:36.974Z,34.80
2022-08-10T13:31:20.502Z,34.90
2022-08-10T13:34:40.656Z,35.10
2022-08-10T13:36:41.885Z,35.30
2022-08-10T13:39:10.478Z,35.30
2022-08-10T13:41:44.081Z,35.30
2022-08-10T13:44:17.643Z,35.40
2022-08-10T13:46:53.316Z,35.60
2022-08-10T13:49:21.851Z,35.60
2022-08-10T13:51:56.705Z,35.60
2022-08-10T13:54:29.102Z,35.50
2022-08-10T13:56:57.957Z,35.50
2022-08-10T14:00:37.769Z,35.30
2022-08-10T14:02:21.929Z,35.20
2022-08-10T14:04:50.212Z,35.00
2022-08-10T14:07:18.378Z,34.80
2022-08-10T14:09:47.849Z,34.60
2022-08-10T14:12:16.653Z,34.40
2022-08-10T14:14:45.321Z,34.20
2022-08-10T14:17:25.038Z,34.00
2022-08-10T14:19:59.213Z,33.90
2022-08-10T14:22:34.327Z,33.70
2022-08-10T14:25:20.006Z,33.50
2022-08-10T14:28:02.555Z,33.30
2022-08-10T14:30:32.947Z,33.20
2022-08-10T14:33:04.851Z,33.00
2022-08-10T14:36:18.693Z,32.80
2022-08-10T14:38:27.539Z,32.70
2022-08-10T14:40:58.868Z,32.50
2022-08-10T14:43:32.995Z,32.40
2022-08-10T14:46:07.902Z,32.20
2022-08-10T14:48:41.403Z,32.10
2022-08-10T14:51:10.894Z,32.10
2022-08-10T14:53:41.277Z,31.90
2022-08-10T14:56:16.540Z,31.70
2022-08-10T14:59:06.092Z,31.70
2022-08-10T15:02:00.853Z,31.50
2022-08-10T15:04:28.896Z,31.40
2022-08-10T15:07:01.320Z,31.30
2022-08-10T15:09:36.275Z,31.20
2022-08-10T15:12:26.673Z,31.10
2022-08-10T15:14:58.708Z,31.00
2022-08-10T15:17:36.784Z,30.90
2022-08-10T15:20:20.884Z,30.80
2022-08-10T15:22:54.778Z,30.70
2022-08-10T15:25:25.997Z,30.60
2022-08-10T15:28:10.982Z,30.60
2022-08-10T15:30:40.445Z,30.50
2022-08-10T15:33:57.771Z,30.40
2022-08-10T15:36:38.896Z,30.40
2022-08-10T15:40:21.893Z,30.40
2022-08-10T15:42:19.114Z,30.30
2022-08-10T15:44:50.057Z,30.20
2022-08-10T15:47:25.686Z,30.20
2022-08-10T15:50:19.885Z,30.10
2022-08-10T15:53:01.604Z,30.10
2022-08-10T15:55:44.247Z,30.00
2022-08-10T15:58:37.693Z,30.00
2022-08-10T16:02:12.294Z,30.00
2022-08-10T16:04:09.051Z,29.90
2022-08-10T16:06:43.098Z,29.80
2022-08-10T16:10:23.156Z,29.80
2022-08-10T16:12:36.839Z,29.80
2022-08-10T16:15:11.039Z,29.70
2022-08-10T16:18:08.324Z,29.70
2022-08-10T16:20:59.780Z,29.70
2022-08-10T16:23:30.705Z,29.60
2022-08-10T16:26:14.906Z,29.50
2022-08-10T16:28:57.959Z,29.50
2022-08-10T16:31:30.652Z,29.50
2022-08-10T16:34:00.448Z,29.50
2022-08-10T16:36:44.604Z,29.40
2022-08-10T16:39:59.314Z,29.40
2022-08-10T16:42:23.760Z,29.30
2022-08-10T16:44:54.983Z,29.30
2022-08-10T16:47:27.458Z,29.20
2022-08-10T16:50:01.060Z,29.20
2022-08-10T16:52:32.343Z,29.20
2022-08-10T16:55:23.550Z,29.20
2022-08-10T16:57:55.937Z,29.20
2022-08-10T17:00:24.627Z,29.10
2022-08-10T17:02:57.159Z,29.10
2022-08-10T17:06:01.520Z,29.10
2022-08-10T17:08:17.610Z,29.00
2022-08-10T17:10:44.767Z,29.00
2022-08-10T17:13:13.826Z,28.90
2022-08-10T17:15:49.924Z,28.80
2022-08-10T17:18:27.735Z,28.80
2022-08-10T17:21:00.850Z,28.80
2022-08-10T17:23:34.250Z,28.70
2022-08-10T17:26:10.662Z,28.70
2022-08-10T17:28:46.160Z,28.70
2022-08-10T17:31:53.824Z,28.60
2022-08-10T17:34:24.846Z,28.60
2022-08-10T17:36:57.983Z,28.50
2022-08-10T17:39:34.067Z,28.50
2022-08-10T17:42:02.238Z,28.50
2022-08-10T17:44:34.932Z,28.40
2022-08-10T17:47:11.058Z,28.40
2022-08-10T17:49:40.243Z,28.40
2022-08-10T17:52:10.580Z,28.30
2022-08-10T17:54:45.100Z,28.30
2022-08-10T17:57:18.548Z,28.30
2022-08-10T17:59:48.082Z,28.20
2022-08-10T18:02:29.346Z,28.20
2022-08-10T18:05:00.358Z,28.20
2022-08-10T18:07:38.652Z,28.20
2022-08-10T18:10:10.727Z,28.10
2022-08-10T18:12:45.070Z,28.10
2022-08-10T18:15:16.712Z,28.00
2022-08-10T18:17:51.042Z,28.00
2022-08-10T18:20:28.123Z,28.00
2022-08-10T18:22:57.290Z,27.90
2022-08-10T18:25:27.764Z,27.90
2022-08-10T18:28:04.827Z,27.90
2022-08-10T18:30:36.297Z,27.80
2022-08-10T18:33:09.344Z,27.80
2022-08-10T18:35:37.416Z,27.80
2022-08-10T18:38:06.698Z,27.70
2022-08-10T18:40:37.971Z,27.60
2022-08-10T18:44:09.956Z,27.60
2022-08-10T18:45:57.703Z,27.60
2022-08-10T18:48:33.228Z,27.40
2022-08-10T18:51:05.927Z,27.40
2022-08-10T18:53:50.812Z,27.40
2022-08-10T18:56:32.429Z,27.40
2022-08-10T18:59:37.638Z,27.30
2022-08-10T19:02:16.947Z,27.30
2022-08-10T19:05:04.894Z,27.20
2022-08-10T19:08:12.692Z,27.20
2022-08-10T19:11:05.690Z,27.10
2022-08-10T19:13:53.958Z,27.10
2022-08-10T19:16:35.749Z,27.10
2022-08-10T19:19:24.754Z,27.10
2022-08-10T19:22:21.369Z,27.00
2022-08-10T19:25:03.358Z,26.90
2022-08-10T19:27:53.048Z,26.90
2022-08-10T19:30:36.368Z,26.90
2022-08-10T19:33:22.063Z,26.80
2022-08-10T19:36:17.471Z,26.70
2022-08-10T19:39:06.291Z,26.70
2022-08-10T19:41:54.961Z,26.60
2022-08-10T19:44:50.326Z,26.60
2022-08-10T19:47:36.505Z,26.60
2022-08-10T19:50:32.190Z,26.50
2022-08-10T19:53:24.980Z,26.50
2022-08-10T19:56:24.377Z,26.40
2022-08-10T20:00:16.646Z,26.40
2022-08-10T20:02:10.062Z,26.30
2022-08-10T20:04:52.950Z,26.20
2022-08-10T20:07:29.419Z,26.10
2022-08-10T20:10:29.201Z,26.10
2022-08-10T20:13:26.910Z,26.10
2022-08-10T20:16:07.108Z,26.00
2022-08-10T20:18:47.369Z,26.00
2022-08-10T20:21:27.849Z,26.00
2022-08-10T20:23:55.457Z,25.90
2022-08-10T20:26:30.790Z,25.70
2022-08-10T20:29:16.168Z,25.70
2022-08-10T20:31:53.086Z,25.70
2022-08-10T20:34:30.322Z,25.70
2022-08-10T20:37:07.493Z,25.60
2022-08-10T20:39:57.778Z,25.60
2022-08-10T20:42:43.773Z,25.60
2022-08-10T20:45:51.846Z,25.50
2022-08-10T20:48:38.135Z,25.50
2022-08-10T20:51:14.815Z,25.50
2022-08-10T20:53:47.809Z,25.40
2022-08-10T20:56:37.706Z,25.30
2022-08-10T20:59:24.039Z,25.30
2022-08-10T21:02:19.877Z,25.20
2022-08-10T21:05:09.511Z,25.20
2022-08-10T21:08:02.482Z,25.20
2022-08-10T21:10:29.880Z,25.20
2022-08-10T21:13:09.201Z,25.10
2022-08-10T21:16:10.293Z,25.00
2022-08-10T21:18:59.454Z,25.00
2022-08-10T21:21:57.114Z,25.00
2022-08-10T21:24:32.221Z,25.00
2022-08-10T21:27:22.498Z,24.90
2022-08-10T21:30:13.940Z,24.90
2022-08-10T21:33:07.949Z,24.80
2022-08-10T21:36:07.378Z,24.70
2022-08-10T21:39:10.160Z,24.70
2022-08-10T21:42:14.567Z,24.90
2022-08-10T21:45:18.981Z,24.80
2022-08-10T21:48:18.986Z,25.00
2022-08-10T21:51:16.605Z,25.00
2022-08-10T21:54:35.834Z,25.00
2022-08-10T21:57:43.112Z,25.10
2022-08-10T22:00:34.687Z,25.10
2022-08-10T22:03:23.615Z,25.10
2022-08-10T22:06:15.059Z,25.10
2022-08-10T22:09:15.653Z,25.10
2022-08-10T22:12:02.628Z,25.10
2022-08-10T22:14:59.751Z,25.00
2022-08-10T22:17:59.498Z,25.10
2022-08-10T22:20:58.700Z,25.10
2022-08-10T22:23:47.553Z,25.10
2022-08-10T22:26:56.657Z,25.10
2022-08-10T22:30:04.395Z,25.10
2022-08-10T22:33:19.863Z,25.10
2022-08-10T22:36:17.689Z,25.10
2022-08-10T22:40:10.209Z,25.10
2022-08-10T22:42:59.486Z,25.10
2022-08-10T22:45:54.997Z,25.00
2022-08-10T22:48:40.632Z,25.10
2022-08-10T22:51:22.709Z,25.00
2022-08-10T22:54:30.349Z,25.00
2022-08-10T22:57:21.325Z,25.00
2022-08-10T22:59:50.344Z,25.00
2022-08-10T23:02:26.691Z,25.00
2022-08-10T23:05:02.380Z,25.00
2022-08-10T23:07:54.687Z,25.00
2022-08-10T23:10:24.530Z,25.00
2022-08-10T23:13:10.447Z,25.00
2022-08-10T23:15:59.864Z,25.00
2022-08-10T23:18:56.327Z,25.00
2022-08-10T23:22:03.266Z,25.00
2022-08-10T23:24:38.721Z,24.90
2022-08-10T23:27:13.058Z,24.90
2022-08-10T23:30:09.895Z,24.90
2022-08-10T23:32:42.270Z,24.90
2022-08-10T23:36:31.269Z,24.80
2022-08-10T23:38:07.144Z,24.90
2022-08-10T23:40:36.398Z,24.80
2022-08-10T23:43:04.981Z,24.80
2022-08-10T23:45:53.154Z,24.80
2022-08-10T23:48:25.090Z,24.80
2022-08-10T23:50:58.574Z,24.80
2022-08-10T23:53:40.557Z,24.80
2022-08-10T23:56:20.704Z,24.80
2022-08-10T23:58:52.606Z,24.80
